Latest Coastal Weather Observations for Warrnambool

IDV60701

Issued at 7:52 pm EST Monday 4 May 2026 (issued every 10 minutes, with the page automatically refreshed every 10 minutes)

About coastal observations | Map of coastal stations | Coastal observations for VIC | Marine services | Other Formats
Station Details ID: 090186 Name: WARRNAMBOOL AIRPORT NDB Lat: -38.29 Lon: 142.45 Height: 70.8 m
Data from the previous 72 hours. | See also: Recent months at Warrnambool
Date/Time
EST
Wind Sea
Height
m
Swell Vis
km
Cloud Weather Temp
°C
Press
MSL
hPa
Rain since
9am
mm
Dir  Spd
kts
Gust
kts
Height
m
Period
s
Dir
04/07:30pm W 15 20 - - - - 10 Mostly clear - 12.8 1011.3 6.0
04/07:07pm W 17 23 - - - - 10 Mostly clear - 12.9 1010.9 6.0
04/07:00pm W 17 24 - - - - 10 Mostly clear - 13.0 1010.7 6.0
04/06:47pm W 18 23 - - - - 5 Partly cloudy - 13.2 1010.6 5.6
04/06:30pm W 20 27 - - - - 10 Partly cloudy - 13.2 1010.0 5.0
04/06:29pm W 20 27 - - - - 10 Partly cloudy - 13.2 1010.0 5.0
04/06:00pm W 16 21 - - - - 10 Cloudy Recent precip. 13.0 1009.2 5.0
04/05:57pm W 15 21 - - - - 10 Partly cloudy - 12.9 1009.2 5.0
04/05:49pm W 14 19 - - - - 7 Partly cloudy - 12.8 1009.0 5.0
04/05:45pm W 16 25 - - - - 4 Partly cloudy - 12.7 1008.9 4.8
04/05:32pm W 18 29 - - - - 2 Partly cloudy - 12.7 1008.7 4.4
04/05:30pm W 18 23 - - - - 2 Partly cloudy - 12.7 1008.8 4.0
04/05:04pm WNW 16 22 - - - - 5 Partly cloudy - 13.2 1008.3 2.4
04/05:01pm WNW 16 22 - - - - 10 Partly cloudy - 13.2 1008.3 2.2
04/05:00pm WNW 16 22 - - - - 10 Partly cloudy - 13.2 1008.3 2.2
04/04:54pm WNW 15 22 - - - - 10 Partly cloudy - 13.2 1008.1 2.2
04/04:49pm WNW 16 23 - - - - 10 Partly cloudy - 13.2 1008.0 2.2
04/04:33pm WNW 15 26 - - - - 3 Partly cloudy - 13.4 1007.8 2.2
04/04:32pm WNW 14 26 - - - - 3 Partly cloudy - 13.4 1007.8 2.0
04/04:30pm WNW 14 26 - - - - 4 Partly cloudy - 13.5 1007.7 2.0
04/04:27pm WNW 13 19 - - - - 5 Partly cloudy - 13.7 1007.6 1.8
04/04:16pm NW 17 27 - - - - 10 Partly cloudy - 14.1 1007.3 1.4
04/04:00pm NW 19 25 - - - - 10 Partly cloudy - 14.3 1007.0 1.4
04/03:30pm NW 16 22 - - - - 10 Partly cloudy - 14.3 1006.6 1.4
04/03:10pm NW 15 20 - - - - 7 Mostly clear - 14.4 1006.5 1.4
04/03:00pm NW 15 20 - - - - 5 Cloudy Rain 13.7 1006.5 1.2
04/02:41pm NW 17 23 - - - - 5 Partly cloudy - 13.9 1006.5 0.8
04/02:30pm NW 14 20 - - - - 6 Partly cloudy - 14.3 1006.3 0.6
04/02:10pm NW 17 23 - - - - 10 Partly cloudy - 14.8 1006.0 0.4
04/02:00pm NW 20 28 - - - - 5 Partly cloudy - 14.7 1005.9 0.4
04/01:56pm NW 18 28 - - - - 5 Partly cloudy - 14.5 1005.8 0.4
04/01:52pm NW 15 28 - - - - 10 Partly cloudy - 14.6 1005.7 0.2
04/01:32pm NNW 16 21 - - - - 10 Partly cloudy - 14.5 1005.8 0.2
04/01:30pm NNW 16 24 - - - - 10 Partly cloudy - 14.2 1005.8 0.2
04/01:13pm N 22 29 - - - - 5 Partly cloudy - 14.3 1005.8 0.0
04/01:00pm NNW 22 31 - - - - 10 Partly cloudy - 16.3 1005.9 0.0
04/12:58pm NNW 21 31 - - - - 10 Partly cloudy - 16.6 1005.8 0.0
04/12:30pm NNW 25 32 - - - - 10 Partly cloudy - 16.4 1006.0 0.0
04/12:04pm NNW 25 38 - - - - 10 Partly cloudy - 15.4 1006.3 0.0
04/12:00pm NNW 24 32 - - - - 10 Cloudy - 15.8 1006.4 0.0
04/11:30am NNW 24 35 - - - - 10 Partly cloudy - 15.8 1006.5 0.0
04/11:16am NNW 23 33 - - - - 10 Partly cloudy - 15.2 1006.5 0.0
04/11:00am NNW 23 30 - - - - 10 Partly cloudy - 15.2 1006.7 0.0
04/10:30am N 22 32 - - - - 10 Partly cloudy - 15.7 1006.7 0.0
04/10:29am N 22 32 - - - - 10 Partly cloudy - 15.6 1006.8 0.0
04/10:00am N 21 30 - - - - 10 Partly cloudy - 14.5 1006.8 0.0
04/09:30am N 20 27 - - - - 10 Partly cloudy - 14.1 1006.8 0.0
04/09:02am N 21 31 - - - - 10 Partly cloudy - 13.5 1006.8 0.0
04/09:00am N 21 29 - - - - 10 Cloudy - 13.7 1006.9 0.0
04/08:36am N 19 29 - - - - 10 Mostly clear - 13.4 1006.8 0.0
04/08:30am N 20 29 - - - - 10 Partly cloudy - 13.3 1006.7 0.0
04/08:00am N 19 27 - - - - 10 Cloudy - 13.0 1006.8 0.0
04/07:30am N 19 26 - - - - 10 Mostly clear - 12.6 1006.6 0.0
04/07:00am N 18 24 - - - - 10 Partly cloudy - 12.7 1006.4 0.0
04/06:30am N 18 25 - - - - 10 Mostly clear - 12.3 1006.4 0.0
04/06:00am N 17 23 - - - - 10 - - 12.1 1006.5 0.0
04/05:30am N 19 25 - - - - 10 - - 12.2 1006.5 0.0
04/05:00am N 18 23 - - - - 10 - - 12.2 1006.7 0.0
04/04:30am N 18 25 - - - - 10 - - 12.4 1006.8 0.0
04/04:00am N 16 22 - - - - 10 - - 12.1 1007.1 0.0
04/03:30am N 14 18 - - - - 10 - - 11.9 1007.4 0.0
04/03:00am N 14 18 - - - - 10 Mostly clear - 11.8 1007.9 0.0
04/02:30am N 13 17 - - - - 10 - - 11.9 1008.0 0.0
04/02:00am N 15 19 - - - - 10 - - 11.9 1008.2 0.0
04/01:30am N 14 17 - - - - 10 - - 12.2 1008.2 0.0
04/01:00am N 12 15 - - - - 10 - - 12.3 1008.5 0.0
04/12:30am N 11 16 - - - - 10 - - 12.2 1008.6 0.0
04/12:00am N 12 15 - - - - 10 - - 12.8 1009.0 0.0
 
Date/Time
EST
Wind Sea
Height
m
Swell Vis
km
Cloud Weather Temp
°C
Press
MSL
hPa
Rain since
9am
mm
Dir  Spd
kts
Gust
kts
Height
m
Period
s
Dir
03/11:30pm N 11 14 - - - - 10 - - 12.9 1009.4 0.0
03/11:00pm N 12 15 - - - - 10 Partly cloudy - 13.4 1009.8 0.0
03/10:30pm NNW 16 20 - - - - 10 Mostly clear - 14.3 1010.0 0.0
03/10:00pm N 15 19 - - - - 10 Partly cloudy - 14.0 1010.0 0.0
03/09:30pm N 12 15 - - - - 10 Partly cloudy - 13.8 1010.0 0.0
03/09:00pm N 13 19 - - - - 10 Mostly cloudy - 14.0 1009.8 0.0
03/08:30pm NNW 14 17 - - - - 10 Mostly clear - 14.5 1009.8 0.0
03/08:01pm N 15 25 - - - - 10 Partly cloudy - 15.4 1010.0 0.0
03/08:00pm N 15 22 - - - - 10 Partly cloudy - 15.4 1009.8 0.0
03/07:30pm N 9 12 - - - - 10 Cloudy - 14.9 1009.7 0.0
03/07:00pm N 9 12 - - - - 10 Mostly clear - 14.6 1009.5 0.0
03/06:30pm N 13 16 - - - - 10 Partly cloudy - 14.9 1009.1 0.0
03/06:00pm N 13 17 - - - - 10 Mostly clear - 14.8 1008.9 0.0
03/05:30pm N 15 22 - - - - 10 Partly cloudy - 16.1 1008.5 0.0
03/05:00pm NNW 14 18 - - - - 10 Partly cloudy - 15.9 1008.3 0.0
03/04:30pm N 14 19 - - - - 10 Cloudy - 16.6 1008.2 0.0
03/04:00pm N 15 23 - - - - 10 Mostly clear - 17.2 1008.2 0.0
03/03:40pm NNW 15 25 - - - - 10 Mostly clear - 17.2 1008.2 0.0
03/03:30pm NNW 16 23 - - - - 10 Mostly clear - 17.5 1008.2 0.0
03/03:00pm NNW 21 29 - - - - 10 Mostly clear - 18.5 1008.1 0.0
03/02:40pm NNW 16 27 - - - - 10 Mostly clear - 18.7 1007.9 0.0
03/02:30pm NNW 20 27 - - - - 10 Mostly clear - 18.6 1008.0 0.0
03/02:00pm NNW 18 25 - - - - 10 Mostly clear - 18.7 1008.2 0.0
03/01:30pm NNW 15 19 - - - - 10 Partly cloudy - 17.5 1008.6 0.0
03/01:00pm NNW 16 22 - - - - 10 Mostly clear - 18.2 1008.8 0.0
03/12:30pm N 16 20 - - - - 10 Mostly clear - 16.7 1009.1 0.0
03/12:00pm NNW 17 24 - - - - 10 Cloudy - 16.6 1009.5 0.0
03/11:30am N 16 21 - - - - 10 Mostly clear - 17.4 1009.3 0.0
03/11:17am NNW 16 26 - - - - 10 Mostly clear - 17.3 1009.2 0.0
03/11:00am NNW 15 21 - - - - 10 Partly cloudy - 17.1 1009.7 0.0
03/10:30am N 11 17 - - - - 10 Mostly clear - 16.6 1009.5 0.0
03/10:00am N 13 16 - - - - 10 - - 15.2 1009.5 0.0
03/09:30am N 10 13 - - - - 10 Mostly clear - 14.6 1009.7 0.0
03/09:00am N 10 13 - - - - 10 Mostly cloudy Thunderstorm 13.3 1009.6 14.8
03/08:30am NNE 6 8 - - - - 10 Mostly clear - 12.6 1009.1 14.8
03/08:25am N 6 8 - - - - 10 Mostly clear - 12.8 1008.9 14.8
03/08:01am N 8 14 - - - - 3 Partly cloudy - 12.9 1010.0 12.8
03/08:00am N 8 14 - - - - 10 Partly cloudy - 12.9 1010.1 12.6
03/07:30am NNE 7 12 - - - - 10 Partly cloudy - 12.3 1009.2 12.6
03/07:00am N 4 7 - - - - 10 Partly cloudy - 12.3 1009.3 12.4
03/06:58am N 5 7 - - - - 10 Partly cloudy - 12.3 1009.3 12.4
03/06:37am NNE 7 9 - - - - 5 Mostly clear - 12.6 1009.8 11.8
03/06:30am NE 4 6 - - - - 10 Partly cloudy - 12.6 1009.2 11.0
03/06:17am NNE 1 4 - - - - 10 Partly cloudy - 12.7 1009.3 11.0
03/06:04am N 5 8 - - - - 5 Cloudy - 12.6 1009.4 10.8
03/06:00am NNE 6 8 - - - - 8 Cloudy Rain 12.6 1009.7 10.8
03/05:32am NW 6 11 - - - - 10 Partly cloudy - 12.7 1009.3 10.6
03/05:30am NW 7 11 - - - - 10 Partly cloudy - 12.6 1009.3 10.6
03/05:13am NW 10 13 - - - - 5 Cloudy - 12.9 1009.6 10.2
03/05:00am NW 7 8 - - - - 7 Cloudy - 13.0 1009.4 10.0
03/04:45am NNW 6 8 - - - - 10 Cloudy - 13.0 1009.1 9.8
03/04:30am NW 7 10 - - - - 3 Cloudy - 13.0 1008.9 9.8
03/04:25am NW 7 10 - - - - 5 Cloudy - 13.1 1009.3 9.4
03/04:19am NW 8 13 - - - - 9 Cloudy - 13.2 1009.4 9.2
03/04:17am NW 8 13 - - - - 9 Mostly clear - 13.2 1009.3 9.2
03/04:00am WNW 10 15 - - - - 2 Partly cloudy - 13.5 1009.6 9.0
03/03:37am NW 9 16 - - - - 3 Mostly clear - 14.7 1009.4 5.2
03/03:30am NW 8 10 - - - - - Partly cloudy - 15.5 1009.2 4.4
03/03:29am NW 8 10 - - - - - Partly cloudy - 15.6 1009.2 4.2
03/03:20am NNW 7 10 - - - - 5 Mostly clear - 15.7 1009.3 3.6
03/03:00am N 11 14 - - - - 8 Cloudy Recent precip. 16.0 1009.3 3.0
03/02:30am N 13 18 - - - - 10 Partly cloudy - 16.2 1009.3 2.8
03/02:00am NNE 15 19 - - - - 10 Partly cloudy - 16.6 1009.6 2.8
03/01:30am NNE 17 21 - - - - 10 Mostly clear - 16.6 1009.7 2.8
03/01:00am NNE 17 22 - - - - 10 Mostly clear - 16.7 1010.2 2.8
03/12:30am NNE 17 22 - - - - 10 Mostly clear - 16.5 1010.1 2.8
03/12:00am NNE 19 27 - - - - 10 Cloudy Recent precip. 16.3 1010.2 2.8
 
Date/Time
EST
Wind Sea
Height
m
Swell Vis
km
Cloud Weather Temp
°C
Press
MSL
hPa
Rain since
9am
mm
Dir  Spd
kts
Gust
kts
Height
m
Period
s
Dir
02/11:30pm N 14 19 - - - - 8 Partly cloudy - 16.0 1010.8 2.6
02/11:00pm NNE 13 17 - - - - 10 Cloudy - 16.0 1011.2 1.8
02/10:37pm NNE 15 20 - - - - 10 Mostly clear - 15.8 1011.1 1.8
02/10:30pm NNE 16 22 - - - - 10 Mostly clear - 15.8 1011.5 1.8
02/10:13pm NNE 15 20 - - - - 5 Mostly clear - 16.0 1012.1 1.0
02/10:00pm N 13 16 - - - - 7 Mostly clear - 16.4 1012.5 0.4
02/09:30pm N 15 19 - - - - 10 Partly cloudy - 17.3 1012.1 0.0
02/09:00pm N 17 21 - - - - 10 Cloudy - 17.8 1012.1 0.0
02/08:30pm N 17 22 - - - - 10 Mostly clear - 18.3 1012.0 0.0
02/08:00pm NNE 19 27 - - - - 10 Mostly clear - 18.4 1011.5 0.0
02/07:44pm NNE 19 29 - - - - 10 Mostly clear - 18.4 1011.5 0.0
02/07:30pm NNE 19 25 - - - - 10 Mostly clear - 18.3 1011.4 0.0
02/07:00pm NNE 17 22 - - - - 10 Partly cloudy - 18.6 1011.6 0.0
02/06:31pm N 21 31 - - - - 10 Mostly clear - 19.1 1011.3 0.0
02/06:30pm N 22 31 - - - - 10 Partly cloudy - 19.1 1011.3 0.0
02/06:00pm NNE 21 27 - - - - 10 Cloudy - 19.7 1010.7 0.0
02/05:36pm NNE 25 35 - - - - 10 - - 20.1 1010.5 0.0
02/05:30pm NNE 24 30 - - - - 10 - - 20.2 1010.5 0.0
02/05:00pm NNE 19 26 - - - - 10 Mostly clear - 20.4 1010.6 0.0
02/04:57pm NNE 17 26 - - - - 10 Mostly clear - 20.3 1010.5 0.0
02/04:30pm N 13 20 - - - - 10 Partly cloudy - 18.8 1010.9 0.0
02/04:00pm N 23 35 - - - - 10 Partly cloudy - 22.4 1011.1 0.0
02/03:51pm N 21 35 - - - - 10 Partly cloudy - 22.9 1010.8 0.0
02/03:30pm N 19 27 - - - - 10 Cloudy - 23.1 1010.8 0.0
02/03:00pm N 23 33 - - - - 10 Cloudy - 23.4 1010.8 0.0
02/02:30pm N 22 30 - - - - 10 Mostly clear - 23.8 1010.7 0.0
02/02:19pm NNE 20 31 - - - - 10 Mostly clear - 24.1 1010.6 0.0
02/02:00pm N 22 31 - - - - 10 Mostly clear - 24.1 1010.9 0.0
02/01:30pm N 20 27 - - - - 10 Mostly clear - 23.8 1011.3 0.0
02/01:08pm NNE 17 27 - - - - 10 - - 23.3 1011.4 0.0
02/01:00pm NNE 18 25 - - - - 10 - - 22.9 1011.6 0.0
02/12:30pm N 20 27 - - - - 10 Cloudy - 20.8 1012.2 0.0
02/12:00pm N 19 29 - - - - 10 Cloudy - 22.7 1012.8 0.0
02/11:58am N 18 29 - - - - 10 Mostly clear - 23.0 1012.9 0.0
02/11:30am NNE 17 22 - - - - 10 Partly cloudy - 22.5 1013.2 0.0
02/11:00am NNE 17 23 - - - - 10 Mostly clear - 21.5 1013.4 0.0
02/10:30am NNE 19 24 - - - - 10 - - 21.1 1013.6 0.0
02/10:00am NNE 17 22 - - - - 10 - - 20.5 1013.9 0.0
02/09:30am NNE 16 20 - - - - 10 - - 19.8 1014.4 0.0
02/09:00am NNE 15 19 - - - - 10 Mostly cloudy - 19.2 1014.4 0.0
02/08:30am NNE 17 22 - - - - 10 - - 19.0 1014.6 0.0
02/08:00am NE 11 18 - - - - 10 - - 17.8 1014.6 0.0
02/07:30am NNE 15 21 - - - - 10 - - 18.7 1014.7 0.0
02/07:00am NNE 15 20 - - - - 10 - - 18.4 1014.6 0.0
02/06:30am NNE 11 14 - - - - 10 - - 17.2 1014.6 0.0
02/06:00am NNE 10 13 - - - - 10 Cloudy - 16.8 1014.7 0.0
02/05:30am NNE 12 16 - - - - 10 - - 16.9 1014.8 0.0
02/05:00am NE 9 11 - - - - 10 - - 16.5 1014.7 0.0
02/04:30am NE 12 16 - - - - 10 - - 16.8 1014.9 0.0
02/04:00am NE 11 15 - - - - 10 - - 17.1 1015.1 0.0
02/03:30am NE 11 14 - - - - 10 - - 16.7 1015.4 0.0
02/03:00am NE 10 14 - - - - 10 Cloudy - 16.9 1015.8 0.0
02/02:30am NE 11 15 - - - - 10 - - 17.3 1016.2 0.0
02/02:00am NE 9 12 - - - - 10 - - 17.6 1016.4 0.0
02/01:30am NE 8 11 - - - - 10 - - 17.0 1016.8 0.0
02/01:00am NE 8 11 - - - - 10 - - 17.2 1017.1 0.0
02/12:30am NE 7 9 - - - - 10 - - 17.0 1017.3 0.0
02/12:00am NE 7 9 - - - - 10 Cloudy - 17.8 1017.7 0.0
 
Date/Time
EST
Wind Sea
Height
m
Swell Vis
km
Cloud Weather Temp
°C
Press
MSL
hPa
Rain since
9am
mm
Dir  Spd
kts
Gust
kts
Height
m
Period
s
Dir
01/11:30pm NNE 9 12 - - - - 10 - - 18.0 1017.8 0.0
01/11:00pm NNE 10 12 - - - - 10 - - 18.7 1018.2 0.0
01/10:30pm NNE 12 15 - - - - 10 - - 19.4 1018.4 0.0
01/10:00pm NNE 12 16 - - - - 10 - - 18.7 1018.7 0.0
01/09:30pm NNE 10 12 - - - - 10 - - 17.7 1018.8 0.0
01/09:00pm NNE 10 13 - - - - 10 Mostly cloudy - 17.9 1018.8 0.0
01/08:30pm NNE 9 10 - - - - 10 - - 17.4 1018.9 0.0
01/08:00pm NNE 8 10 - - - - 10 - - 17.1 1018.8 0.0

Other formats

Comma delimited format used in spreadsheet applications
http://www.bom.gov.au/fwo/IDV60701/IDV60701.94837.axf

JavaScript Object Notation format (JSON) in row-major order
http://www.bom.gov.au/fwo/IDV60701/IDV60701.94837.json

Data quality

Most of these data are generated automatically and are frequently updated. Quality checks on data are not normally performed. It is possible for incorrect values to appear. Refer to information at About Latest Weather Observations and please check the disclaimer before using these data.